Terminal Aerodrome Forecast
Issued by NWS

Home | Current Version | Previous Version | Text Only | Print | Product List | Glossary On
Versions: 1 2 3 4 5 6 7 8 9 10 11 12 13
000
FTAK31 PAJN 051700
TAFAPG
TAF
PAPG 051737Z 0518/0618 06007KT P6SM SCT250
     FM060100 09006KT P6SM SCT250
     FM060700 VRB03KT P6SM SCT200
     FM061600 05005KT P6SM FEW200
      AMD LTD TO CLD VIS AND WIND 0606/0615=

USA.gov is the U.S. government's official web portal to all federal, state and local government web resources and services.